N410HA KBUF-KIAG
Flight info
| Callsign | N410HA |
|---|---|
| Flight time | 0h 12m |
| Altitude | 2500 |
| Route | VIA FALLS |
| Aircraft | EC30/L-VGD/C |
Departure
| Time | 2026-05-05 14:03 |
|---|---|
| Airport | Buffalo Niagara International Airport (KBUF) |
Arrival
| Time | 2026-05-05 14:16 |
|---|---|
| Airport | Niagara Falls International Airport (KIAG) |
| Time | Latitude | Longitude | Altitude | Speed | Heading |
|---|---|---|---|---|---|
| 2026-05-05 14:00 | 42.94438 | -78.74036 | 702 ft | 0 kts | 37° |
| 2026-05-05 14:02 | 42.94429 | -78.74010 | 760 ft | 14 kts | 293° |
| 2026-05-05 14:02 | 42.94537 | -78.74193 | 927 ft | 47 kts | 293° |
| 2026-05-05 14:03 | 42.94831 | -78.74590 | 1211 ft | 71 kts | 304° |
| 2026-05-05 14:03 | 42.95354 | -78.75007 | 1350 ft | 75 kts | 309° |
| 2026-05-05 14:03 | 42.95757 | -78.75409 | 1732 ft | 64 kts | 307° |
| 2026-05-05 14:03 | 42.95993 | -78.75852 | 2049 ft | 49 kts | 277° |
| 2026-05-05 14:04 | 42.96028 | -78.76296 | 2293 ft | 52 kts | 261° |
| 2026-05-05 14:04 | 42.96081 | -78.77066 | 2202 ft | 91 kts | 279° |
| 2026-05-05 14:04 | 42.96381 | -78.77922 | 2200 ft | 99 kts | 291° |
| 2026-05-05 14:04 | 42.96788 | -78.78767 | 2192 ft | 101 kts | 296° |
| 2026-05-05 14:05 | 42.97219 | -78.79610 | 2179 ft | 101 kts | 292° |
| 2026-05-05 14:05 | 42.97589 | -78.80465 | 2201 ft | 97 kts | 287° |
| 2026-05-05 14:05 | 42.97920 | -78.81298 | 2198 ft | 96 kts | 287° |
| 2026-05-05 14:05 | 42.98253 | -78.82141 | 2209 ft | 96 kts | 285° |
| 2026-05-05 14:06 | 42.98601 | -78.82988 | 2209 ft | 97 kts | 286° |
| 2026-05-05 14:06 | 42.98959 | -78.83823 | 2214 ft | 97 kts | 287° |
| 2026-05-05 14:06 | 42.99335 | -78.84681 | 2210 ft | 97 kts | 287° |
| 2026-05-05 14:06 | 42.99692 | -78.85487 | 2214 ft | 96 kts | 287° |
| 2026-05-05 14:07 | 43.00058 | -78.86316 | 2216 ft | 98 kts | 288° |
| 2026-05-05 14:07 | 43.00436 | -78.87145 | 2211 ft | 96 kts | 289° |
| 2026-05-05 14:07 | 43.00809 | -78.87963 | 2217 ft | 95 kts | 287° |
| 2026-05-05 14:07 | 43.01165 | -78.88769 | 2206 ft | 96 kts | 287° |
| 2026-05-05 14:08 | 43.01532 | -78.89597 | 2202 ft | 96 kts | 287° |
| 2026-05-05 14:08 | 43.01887 | -78.90389 | 2203 ft | 96 kts | 287° |
| 2026-05-05 14:08 | 43.02251 | -78.91214 | 2200 ft | 99 kts | 288° |
| 2026-05-05 14:08 | 43.02632 | -78.92059 | 2200 ft | 99 kts | 288° |
| 2026-05-05 14:09 | 43.03017 | -78.92913 | 2200 ft | 99 kts | 289° |
| 2026-05-05 14:09 | 43.03399 | -78.93758 | 2197 ft | 98 kts | 288° |
| 2026-05-05 14:09 | 43.03772 | -78.94590 | 2194 ft | 97 kts | 287° |
| 2026-05-05 14:09 | 43.04145 | -78.95419 | 2206 ft | 99 kts | 289° |
| 2026-05-05 14:10 | 43.04510 | -78.96267 | 2201 ft | 98 kts | 288° |
| 2026-05-05 14:10 | 43.04886 | -78.97109 | 2205 ft | 97 kts | 289° |
| 2026-05-05 14:10 | 43.05246 | -78.97932 | 2197 ft | 98 kts | 288° |
| 2026-05-05 14:10 | 43.05623 | -78.98775 | 2199 ft | 97 kts | 289° |
| 2026-05-05 14:11 | 43.06002 | -78.99631 | 2200 ft | 98 kts | 289° |
| 2026-05-05 14:11 | 43.06374 | -79.00459 | 2192 ft | 96 kts | 288° |
| 2026-05-05 14:11 | 43.06746 | -79.01277 | 2195 ft | 95 kts | 288° |
| 2026-05-05 14:11 | 43.07121 | -79.02090 | 2194 ft | 94 kts | 290° |
| 2026-05-05 14:12 | 43.07478 | -79.02931 | 2046 ft | 95 kts | 285° |
| 2026-05-05 14:12 | 43.07786 | -79.03786 | 1959 ft | 92 kts | 287° |
| 2026-05-05 14:12 | 43.08131 | -79.04610 | 1848 ft | 99 kts | 292° |
| 2026-05-05 14:12 | 43.08488 | -79.05443 | 1735 ft | 93 kts | 286° |
| 2026-05-05 14:13 | 43.08527 | -79.06269 | 1685 ft | 80 kts | 252° |
| 2026-05-05 14:13 | 43.08074 | -79.06757 | 1681 ft | 89 kts | 214° |
| 2026-05-05 14:13 | 43.07394 | -79.06579 | 1672 ft | 111 kts | 173° |
| 2026-05-05 14:13 | 43.06831 | -79.05630 | 1648 ft | 134 kts | 133° |
| 2026-05-05 14:14 | 43.06690 | -79.04277 | 1593 ft | 146 kts | 100° |
| 2026-05-05 14:14 | 43.07021 | -79.02884 | 1569 ft | 148 kts | 73° |
| 2026-05-05 14:14 | 43.07552 | -79.01592 | 1493 ft | 150 kts | 64° |
| 2026-05-05 14:14 | 43.08075 | -79.00325 | 1346 ft | 149 kts | 66° |
| 2026-05-05 14:15 | 43.08550 | -78.99161 | 1301 ft | 123 kts | 61° |
| 2026-05-05 14:15 | 43.09004 | -78.98203 | 1255 ft | 111 kts | 59° |
| 2026-05-05 14:15 | 43.09405 | -78.97289 | 1145 ft | 109 kts | 64° |
| 2026-05-05 14:15 | 43.09770 | -78.96440 | 1026 ft | 85 kts | 58° |
| 2026-05-05 14:16 | 43.10028 | -78.95887 | 910 ft | 46 kts | 56° |
| 2026-05-05 14:16 | 43.10147 | -78.95596 | 823 ft | 23 kts | 75° |
| 2026-05-05 14:16 | 43.10180 | -78.95425 | 763 ft | 12 kts | 82° |
| 2026-05-05 14:16 | 43.10166 | -78.95408 | 891 ft | 5 kts | 77° |
| 2026-05-05 14:17 | 43.10145 | -78.95367 | 864 ft | 13 kts | 98° |
| 2026-05-05 14:17 | 43.10124 | -78.95378 | 795 ft | 12 kts | 82° |
| 2026-05-05 14:17 | 43.10114 | -78.95342 | 770 ft | 9 kts | 73° |
| 2026-05-05 14:17 | 43.10175 | -78.95398 | 749 ft | 6 kts | 77° |
| 2026-05-05 14:18 | 43.10160 | -78.95359 | 682 ft | 4 kts | 81° |
| 2026-05-05 14:18 | 43.10152 | -78.95327 | 641 ft | 3 kts | 88° |
| 2026-05-05 14:18 | 43.10167 | -78.95327 | 614 ft | 1 kts | 79° |
| 2026-05-05 14:18 | 43.10162 | -78.95319 | 597 ft | 3 kts | 78° |
| 2026-05-05 14:19 | 43.10160 | -78.95316 | 595 ft | 3 kts | 83° |
| 2026-05-05 14:19 | 43.10157 | -78.95314 | 581 ft | 1 kts | 63° |
| 2026-05-05 14:19 | 43.10162 | -78.95316 | 581 ft | 0 kts | 75° |